Time;durP1;ratioP1;P1;durP2;ratioP2;P2;SDS_P1;SDS_P2;PMS_P1;PMS_P2;Temp;Humidity;BMP_temperature;BMP_pressure;BME280_temperature;BME280_humidity;BME280_pressure;Samples;Min_cycle;Max_cycle;Signal;HPM_P1;HPM_P2
2024/04/16 00:01:06;;;;;;;6.32;4.50;;;;;;;17.95;69.57;99727.38;5449958;26;20075;-74
2024/04/16 00:03:32;;;;;;;10.15;4.63;;;;;;;18.05;69.13;99724.72;5453801;26;20002;-69
2024/04/16 00:05:59;;;;;;;10.65;5.07;;;;;;;17.86;70.17;99726.53;5453654;26;19995;-68
2024/04/16 00:08:25;;;;;;;8.07;4.30;;;;;;;17.58;71.67;99724.91;5453236;26;20026;-70
2024/04/16 00:10:51;;;;;;;8.80;4.93;;;;;;;17.50;71.45;99724.06;5453375;26;20418;-70
2024/04/16 00:13:16;;;;;;;8.45;4.85;;;;;;;17.30;72.50;99734.56;5453504;26;20430;-68
2024/04/16 00:15:42;;;;;;;8.57;4.35;;;;;;;16.94;73.67;99713.75;5453577;26;20012;-71
2024/04/16 00:18:07;;;;;;;7.95;4.95;;;;;;;16.75;74.71;99718.09;5415127;26;19999;-70
2024/04/16 00:20:33;;;;;;;7.82;4.82;;;;;;;16.75;75.30;99712.03;5450858;26;19995;-68
2024/04/16 00:22:58;;;;;;;6.15;4.70;;;;;;;16.90;75.24;99724.19;5450536;26;20318;-71
2024/04/16 00:25:24;;;;;;;7.60;4.88;;;;;;;16.76;74.58;99687.66;5453241;26;20307;-71
2024/04/16 00:27:49;;;;;;;9.50;4.60;;;;;;;17.07;74.10;99701.59;5453647;26;19999;-68
2024/04/16 00:30:15;;;;;;;10.55;4.80;;;;;;;17.22;73.04;99698.06;5453340;26;20063;-68
2024/04/16 00:32:40;;;;;;;5.95;4.32;;;;;;;17.38;72.35;99688.44;5453367;26;19999;-71
2024/04/16 00:35:06;;;;;;;6.93;4.82;;;;;;;17.61;71.30;99688.34;5453485;26;19999;-71
2024/04/16 00:37:31;;;;;;;9.88;4.97;;;;;;;17.78;70.60;99693.50;5453053;26;20073;-70
2024/04/16 00:39:57;;;;;;;7.38;4.53;;;;;;;17.91;70.59;99696.91;5452650;26;20107;-73
2024/04/16 00:42:22;;;;;;;6.10;4.60;;;;;;;17.41;70.31;99627.56;5453198;26;19998;-76
2024/04/16 00:44:48;;;;;;;6.35;4.40;;;;;;;17.50;70.21;99634.47;5453118;26;19999;-70
2024/04/16 00:47:16;;;;;;;7.90;4.50;;;;;;;17.91;69.94;99681.22;5453179;26;20067;-72
2024/04/16 00:49:42;;;;;;;5.80;4.70;;;;;;;17.93;69.40;99682.09;5452947;26;20026;-70
2024/04/16 00:52:09;;;;;;;6.85;4.70;;;;;;;17.77;69.42;99676.09;5414682;26;20007;-73
2024/04/16 00:54:35;;;;;;;11.60;4.80;;;;;;;17.69;69.54;99683.09;5449872;26;20010;-70
2024/04/16 00:57:01;;;;;;;6.05;4.85;;;;;;;17.40;70.30;99667.56;5453072;26;19998;-70
2024/04/16 00:59:28;;;;;;;7.55;4.57;;;;;;;17.44;70.85;99671.91;5452758;26;20454;-70
2024/04/16 01:01:54;;;;;;;9.32;4.63;;;;;;;17.35;71.95;99695.44;5453342;26;20067;-69
2024/04/16 01:04:23;;;;;;;8.45;5.18;;;;;;;16.93;73.68;99688.53;5419964;26;20032;-70
2024/04/16 01:06:53;;;;;;;9.77;4.88;;;;;;;16.96;74.68;99696.38;5452386;26;20003;-72
2024/04/16 01:09:19;;;;;;;8.57;4.85;;;;;;;16.91;74.39;99686.78;5452290;26;20003;-69
2024/04/16 01:11:47;;;;;;;8.02;4.80;;;;;;;16.82;75.20;99690.28;5450421;26;20010;-72
2024/04/16 01:14:13;;;;;;;6.57;5.20;;;;;;;16.75;75.12;99696.38;5452246;26;20003;-70
2024/04/16 01:16:38;;;;;;;9.82;4.75;;;;;;;16.82;75.48;99704.19;5452983;26;19998;-70
2024/04/16 01:19:06;;;;;;;7.90;4.60;;;;;;;16.72;76.59;99704.19;5452486;26;20010;-73
2024/04/16 01:21:32;;;;;;;7.03;4.50;;;;;;;16.59;76.74;99698.13;5450656;26;19998;-70
2024/04/16 01:23:57;;;;;;;7.35;4.63;;;;;;;16.21;78.66;99685.94;5452476;26;20006;-72
2024/04/16 01:26:23;;;;;;;9.70;4.85;;;;;;;16.17;79.22;99704.16;5452614;26;20015;-71
2024/04/16 01:28:48;;;;;;;8.25;4.35;;;;;;;16.18;79.09;99711.09;5452376;26;20064;-76
2024/04/16 01:31:14;;;;;;;9.25;5.20;;;;;;;16.10;79.53;99681.59;5452628;26;20425;-70
2024/04/16 01:33:40;;;;;;;11.20;4.85;;;;;;;16.30;78.75;99686.81;5452265;26;20005;-70
2024/04/16 01:36:06;;;;;;;6.65;4.93;;;;;;;16.46;77.78;99692.91;5452633;26;20003;-72
2024/04/16 01:38:32;;;;;;;5.15;4.55;;;;;;;16.31;77.23;99674.66;5450539;26;20014;-73
2024/04/16 01:40:57;;;;;;;8.60;4.85;;;;;;;16.22;77.03;99643.41;5452240;26;20074;-70
2024/04/16 01:43:23;;;;;;;8.50;4.70;;;;;;;16.44;76.29;99681.59;5450615;26;19998;-69
2024/04/16 01:45:48;;;;;;;6.40;4.60;;;;;;;16.46;76.42;99663.38;5452039;26;20345;-70
2024/04/16 01:48:14;;;;;;;9.88;4.85;;;;;;;16.70;75.69;99685.06;5451612;26;19994;-70
2024/04/16 01:50:39;;;;;;;6.50;4.40;;;;;;;16.56;75.53;99644.28;5452249;26;20076;-69
2024/04/16 01:53:05;;;;;;;7.15;4.32;;;;;;;16.70;73.78;99661.59;5452060;26;20003;-69
2024/04/16 01:55:34;;;;;;;9.48;4.82;;;;;;;16.87;73.06;99674.63;5452198;26;20002;-76
2024/04/16 01:57:59;;;;;;;7.85;4.63;;;;;;;16.60;73.64;99625.16;5452133;26;20007;-70
2024/04/16 02:00:25;;;;;;;8.18;4.70;;;;;;;16.90;73.92;99685.94;5452288;26;20502;-70
2024/04/16 02:02:50;;;;;;;7.05;4.43;;;;;;;16.88;73.42;99674.63;5452133;26;20013;-74
2024/04/16 02:05:15;;;;;;;5.63;4.28;;;;;;;16.63;74.24;99669.44;5451988;26;20382;-70
2024/04/16 02:07:41;;;;;;;6.90;4.50;;;;;;;16.54;74.69;99682.47;5451680;26;20013;-69
2024/04/16 02:10:11;;;;;;;10.48;5.03;;;;;;;16.00;76.09;99628.63;5444383;26;20441;-69
2024/04/16 02:12:37;;;;;;;11.93;5.40;;;;;;;16.31;76.72;99674.66;5450348;26;20460;-69
2024/04/16 02:15:03;;;;;;;12.00;4.88;;;;;;;16.36;76.26;99669.44;5451745;26;20002;-71
2024/04/16 02:17:28;;;;;;;11.38;5.45;;;;;;;16.32;76.37;99666.84;5451797;26;20075;-69
2024/04/16 02:19:54;;;;;;;10.18;5.22;;;;;;;16.39;75.77;99662.50;5450491;26;20048;-71
2024/04/16 02:22:19;;;;;;;7.15;5.20;;;;;;;16.46;74.69;99661.66;5451560;26;20075;-68
2024/04/16 02:24:45;;;;;;;9.27;5.10;;;;;;;16.43;75.71;99679.88;5452177;26;20426;-69
2024/04/16 02:27:10;;;;;;;8.40;5.20;;;;;;;16.14;75.71;99633.00;5451562;26;20010;-68
2024/04/16 02:29:36;;;;;;;9.55;5.00;;;;;;;15.84;75.51;99624.28;5451803;26;20093;-68
2024/04/16 02:32:01;;;;;;;7.03;5.07;;;;;;;15.88;76.37;99654.63;5451363;26;19999;-68
2024/04/16 02:34:27;;;;;;;7.05;4.95;;;;;;;16.00;75.97;99669.44;5450263;26;20010;-68
2024/04/16 02:36:52;;;;;;;6.72;5.15;;;;;;;15.91;75.95;99665.03;5451354;26;20429;-68
2024/04/16 02:39:21;;;;;;;7.78;4.97;;;;;;;15.85;76.05;99665.91;5451949;26;20027;-74
2024/04/16 02:41:47;;;;;;;7.57;5.05;;;;;;;15.60;77.13;99659.75;5451000;26;20015;-68
2024/04/16 02:44:12;;;;;;;6.60;5.03;;;;;;;15.04;78.46;99610.09;5447709;26;20097;-71
2024/04/16 02:46:38;;;;;;;7.57;5.80;;;;;;;15.36;79.07;99666.59;5475309;26;20446;-70
2024/04/16 02:49:03;;;;;;;8.52;5.28;;;;;;;15.20;78.59;99625.75;5475010;26;20005;-69
2024/04/16 02:51:29;;;;;;;7.45;5.07;;;;;;;15.48;78.53;99670.09;5487603;26;20002;-70
2024/04/16 02:53:55;;;;;;;11.25;4.97;;;;;;;15.42;78.01;99639.72;5487130;26;19997;-73
2024/04/16 02:56:20;;;;;;;6.75;4.68;;;;;;;15.60;77.76;99675.34;5427223;26;19999;-72
2024/04/16 02:58:46;;;;;;;5.97;4.60;;;;;;;15.61;76.76;99653.66;5487629;26;20008;-70
2024/04/16 03:01:11;;;;;;;8.50;4.53;;;;;;;15.74;76.69;99662.38;5464068;26;20421;-70
2024/04/16 03:03:37;;;;;;;7.85;4.40;;;;;;;15.84;76.59;99661.56;5487214;26;20041;-74
2024/04/16 03:06:03;;;;;;;8.07;4.78;;;;;;;15.85;76.55;99654.66;5487295;26;20440;-73
2024/04/16 03:08:29;;;;;;;6.30;4.68;;;;;;;16.02;75.82;99667.69;5487745;26;20013;-71
2024/04/16 03:10:59;;;;;;;7.90;4.75;;;;;;;16.08;75.52;99677.25;5486855;26;20324;-75
2024/04/16 03:13:25;;;;;;;8.70;5.15;;;;;;;15.73;77.83;99662.38;5464392;26;20448;-71
2024/04/16 03:15:50;;;;;;;9.98;5.38;;;;;;;15.71;78.55;99677.13;5480412;26;19994;-69
2024/04/16 03:18:16;;;;;;;10.45;4.82;;;;;;;15.62;78.43;99683.16;5487464;26;19994;-70
2024/04/16 03:20:41;;;;;;;8.50;5.30;;;;;;;15.47;79.15;99681.38;5486790;26;20443;-70
2024/04/16 03:23:08;;;;;;;13.85;5.50;;;;;;;15.06;82.24;99677.69;5486800;26;19998;-72
2024/04/16 03:25:43;;;;;;;13.35;5.30;;;;;;;14.46;85.93;99659.91;5486272;26;20026;-70
2024/04/16 03:28:08;;;;;;;9.90;5.95;;;;;;;14.64;86.05;99684.28;5485203;26;20006;-70
2024/04/16 03:30:34;;;;;;;8.38;5.43;;;;;;;14.71;86.16;99684.38;5485664;26;20390;-70
2024/04/16 03:33:00;;;;;;;10.95;5.32;;;;;;;14.74;85.40;99669.69;5486546;26;20002;-70
2024/04/16 03:35:26;;;;;;;8.55;4.95;;;;;;;14.97;84.16;99673.31;5483918;26;20346;-69
2024/04/16 03:37:52;;;;;;;8.93;5.20;;;;;;;15.19;82.71;99673.44;5486503;26;20459;-69
2024/04/16 03:40:17;;;;;;;9.77;5.18;;;;;;;15.27;82.47;99670.88;5468442;26;20010;-68
2024/04/16 03:42:43;;;;;;;11.25;5.50;;;;;;;15.32;82.24;99677.81;5481759;26;20017;-72
2024/04/16 03:45:08;;;;;;;7.82;5.10;;;;;;;15.08;82.30;99643.88;5486360;26;19998;-70
2024/04/16 03:47:34;;;;;;;6.93;5.07;;;;;;;15.12;82.69;99669.06;5467346;26;20030;-72
2024/04/16 03:49:59;;;;;;;11.45;5.32;;;;;;;15.13;81.78;99684.66;5468913;26;20039;-70
2024/04/16 03:52:25;;;;;;;14.63;5.22;;;;;;;14.99;81.86;99692.38;5485926;26;20530;-70
2024/04/16 03:54:51;;;;;;;9.45;5.20;;;;;;;14.76;83.09;99678.38;5483264;26;20041;-69
2024/04/16 03:57:17;;;;;;;6.95;4.72;;;;;;;14.78;82.09;99697.41;5486776;26;20039;-69
2024/04/16 04:02:26;;;;;;;8.38;4.93;;;;;;;14.88;81.63;99668.91;5458680;26;20013;-75
2024/04/16 04:04:52;;;;;;;6.90;4.88;;;;;;;15.26;82.10;99701.19;5462200;26;19998;-72
2024/04/16 04:07:18;;;;;;;13.45;6.15;;;;;;;15.39;81.67;99707.34;5478383;26;20372;-70
2024/04/16 04:09:44;;;;;;;10.18;5.60;;;;;;;15.42;81.71;99701.28;5465956;26;20029;-70
2024/04/16 04:12:10;;;;;;;16.98;5.65;;;;;;;15.48;81.54;99688.31;5434983;26;20311;-72
2024/04/16 04:14:36;;;;;;;9.88;4.85;;;;;;;15.52;80.36;99690.06;5477157;26;20386;-70
2024/04/16 04:17:01;;;;;;;10.80;5.50;;;;;;;15.43;80.59;99661.41;5477322;26;20010;-69
2024/04/16 04:19:27;;;;;;;9.05;5.13;;;;;;;15.57;79.15;99696.13;5486205;26;20010;-69
2024/04/16 04:21:53;;;;;;;10.10;5.18;;;;;;;15.75;78.83;99713.56;5486173;26;20074;-69
2024/04/16 04:24:19;;;;;;;15.05;4.60;;;;;;;15.56;79.49;99714.34;5485476;26;19998;-69
2024/04/16 04:26:45;;;;;;;9.18;5.50;;;;;;;15.48;80.39;99738.59;5485496;26;19998;-70
2024/04/16 04:29:10;;;;;;;12.18;5.35;;;;;;;15.44;80.25;99729.03;5426011;26;20014;-70
2024/04/16 04:31:36;;;;;;;10.30;5.18;;;;;;;15.37;80.12;99703.84;5485940;26;20009;-74
2024/04/16 04:34:02;;;;;;;13.00;4.65;;;;;;;15.19;84.19;99751.44;5485948;26;20317;-70
2024/04/16 04:36:29;;;;;;;21.38;9.75;;;;;;;14.22;86.44;99663.19;5486021;26;20009;-72
2024/04/16 04:38:54;;;;;;;16.65;11.18;;;;;;;14.71;88.43;99762.31;5485344;26;20070;-74
2024/04/16 04:41:22;;;;;;;19.25;10.05;;;;;;;14.80;87.91;99765.88;5481062;26;20002;-71
2024/04/16 04:43:51;;;;;;;19.42;11.57;;;;;;;14.59;88.99;99738.81;5458778;26;20017;-71
2024/04/16 04:46:20;;;;;;;21.52;10.75;;;;;;;14.87;90.67;99770.28;5489351;26;20002;-71
2024/04/16 04:48:46;;;;;;;11.52;8.32;;;;;;;14.82;89.63;99749.44;5482777;26;20072;-72
2024/04/16 04:51:12;;;;;;;11.60;9.05;;;;;;;14.87;89.92;99752.94;5475830;26;20016;-70
2024/04/16 04:53:38;;;;;;;17.20;8.43;;;;;;;15.16;91.24;99786.06;5489011;26;20070;-71
2024/04/16 04:56:04;;;;;;;15.50;7.05;;;;;;;15.20;90.03;99777.44;5489420;26;20010;-70
2024/04/16 04:58:30;;;;;;;13.60;7.50;;;;;;;15.36;89.30;99755.03;5489435;26;20342;-71
2024/04/16 05:00:57;;;;;;;25.58;8.88;;;;;;;15.35;88.88;99723.78;5489123;26;20041;-71
2024/04/16 05:03:22;;;;;;;23.55;7.88;;;;;;;15.74;89.46;99761.28;5489580;26;20325;-70
2024/04/16 05:05:48;;;;;;;22.58;8.65;;;;;;;16.01;86.32;99778.78;5486136;26;19994;-74
2024/04/16 05:08:13;;;;;;;28.95;9.05;;;;;;;16.09;85.45;99759.72;5488923;26;20453;-71
2024/04/16 05:10:39;;;;;;;28.48;8.57;;;;;;;16.36;86.40;99787.53;5487613;26;19994;-76
2024/04/16 05:13:05;;;;;;;26.95;9.35;;;;;;;16.41;85.70;99775.41;5488760;26;20382;-74
2024/04/16 05:15:30;;;;;;;12.55;6.65;;;;;;;16.34;85.21;99747.59;5489302;26;20006;-74
2024/04/16 05:17:56;;;;;;;9.35;6.40;;;;;;;16.44;84.82;99759.75;5489314;26;20013;-70
2024/04/16 05:20:21;;;;;;;9.20;6.43;;;;;;;16.41;85.55;99769.31;5489242;26;20001;-69
2024/04/16 05:22:48;;;;;;;11.73;6.03;;;;;;;16.21;86.38;99761.47;5489243;26;19998;-69
2024/04/16 05:25:14;;;;;;;12.20;7.13;;;;;;;16.20;86.23;99747.56;5488463;26;20521;-73
2024/04/16 05:27:40;;;;;;;10.15;6.43;;;;;;;16.41;86.89;99762.38;5489184;26;20010;-69
2024/04/16 05:30:06;;;;;;;12.05;7.05;;;;;;;16.49;88.22;99757.19;5464280;26;20044;-72
2024/04/16 05:32:31;;;;;;;17.10;7.13;;;;;;;16.51;86.75;99745.03;5488747;26;20433;-72
2024/04/16 05:34:57;;;;;;;19.33;8.50;;;;;;;16.56;85.52;99752.81;5469384;26;20018;-71
2024/04/16 05:37:22;;;;;;;13.63;7.53;;;;;;;16.61;86.67;99757.19;5461405;26;20018;-70
2024/04/16 05:39:48;;;;;;;15.82;8.85;;;;;;;16.78;87.15;99772.81;5488686;26;20002;-70
2024/04/16 05:42:14;;;;;;;13.40;8.35;;;;;;;16.85;87.24;99759.78;5468882;26;19998;-69
2024/04/16 05:44:39;;;;;;;15.20;9.40;;;;;;;16.90;86.77;99747.66;5461217;26;20333;-75
2024/04/16 05:47:05;;;;;;;16.70;8.98;;;;;;;17.05;85.16;99744.19;5456992;26;20011;-70
2024/04/16 05:49:31;;;;;;;17.17;9.98;;;;;;;16.98;84.22;99710.28;5442937;26;20000;-70
2024/04/16 05:51:58;;;;;;;29.85;9.55;;;;;;;17.25;85.15;99733.72;5475662;26;20092;-71
2024/04/16 05:54:24;;;;;;;19.40;12.30;;;;;;;17.25;86.81;99731.97;5487872;26;20381;-75
2024/04/16 05:56:50;;;;;;;24.30;13.68;;;;;;;17.19;87.67;99724.16;5460359;26;20014;-70
2024/04/16 05:59:16;;;;;;;24.58;13.23;;;;;;;17.27;89.98;99708.47;5448662;26;20093;-70
2024/04/16 06:01:41;;;;;;;18.75;12.68;;;;;;;17.38;90.39;99713.66;5438612;26;20332;-73
2024/04/16 06:04:07;;;;;;;16.40;11.80;;;;;;;17.39;92.22;99737.13;5435551;26;20017;-73
2024/04/16 06:06:32;;;;;;;15.95;10.50;;;;;;;17.38;92.00;99730.19;5449069;26;19995;-70
2024/04/16 06:08:59;;;;;;;15.65;11.75;;;;;;;17.48;92.33;99736.25;5469051;26;19998;-73
2024/04/16 06:11:25;;;;;;;15.20;9.85;;;;;;;17.32;95.23;99716.28;5456566;26;20013;-71
2024/04/16 06:13:50;;;;;;;13.85;8.63;;;;;;;17.38;87.19;99722.34;5471538;26;19999;-72
2024/04/16 06:16:17;;;;;;;15.60;9.20;;;;;;;17.45;86.50;99736.25;5464922;26;20009;-72
2024/04/16 06:18:42;;;;;;;12.30;8.13;;;;;;;17.08;85.50;99673.75;5474367;26;19994;-71
2024/04/16 06:21:09;;;;;;;10.65;8.25;;;;;;;17.53;86.34;99736.22;5450809;26;20009;-69
2024/04/16 06:23:37;;;;;;;10.57;7.85;;;;;;;17.61;87.33;99752.75;5485927;26;19998;-70
2024/04/16 06:26:09;;;;;;;12.27;7.28;;;;;;;17.59;88.39;99754.47;5487732;26;20358;-69
2024/04/16 06:28:35;;;;;;;12.40;7.18;;;;;;;17.70;88.92;99765.75;5440038;26;20020;-70
2024/04/16 06:31:01;;;;;;;11.23;7.28;;;;;;;17.84;87.85;99762.22;5487886;26;19998;-71
2024/04/16 06:33:30;;;;;;;16.17;6.60;;;;;;;17.90;85.74;99757.84;5488251;26;20013;-69
2024/04/16 06:35:55;;;;;;;10.70;5.75;;;;;;;17.88;82.95;99764.81;5485572;26;19994;-69
2024/04/16 06:38:24;;;;;;;10.35;6.10;;;;;;;17.94;83.66;99771.78;5487521;26;19998;-69
2024/04/16 06:40:50;;;;;;;10.52;5.80;;;;;;;17.98;83.01;99781.34;5454795;26;19997;-70
2024/04/16 06:43:16;;;;;;;9.32;5.65;;;;;;;18.07;83.42;99775.22;5484407;26;19994;-69
2024/04/16 06:45:42;;;;;;;9.20;6.10;;;;;;;18.22;79.99;99763.81;5488266;26;20066;-68
2024/04/16 06:48:08;;;;;;;8.88;5.20;;;;;;;18.23;79.72;99761.19;5488271;26;20005;-70
2024/04/16 06:50:33;;;;;;;9.98;4.32;;;;;;;18.37;78.64;99763.72;5486659;26;20018;-70
2024/04/16 06:52:59;;;;;;;6.90;4.13;;;;;;;18.47;77.09;99768.88;5487833;26;20070;-74
2024/04/16 06:55:25;;;;;;;7.93;4.32;;;;;;;18.40;76.41;99752.38;5487697;26;19994;-71
2024/04/16 06:57:51;;;;;;;9.70;3.83;;;;;;;18.58;75.76;99765.31;5447491;26;20014;-74
2024/04/16 07:00:17;;;;;;;5.57;3.50;;;;;;;18.69;75.73;99756.50;5448253;26;20007;-69
2024/04/16 07:02:43;;;;;;;8.10;4.13;;;;;;;18.74;74.32;99721.63;5448063;26;19999;-68
2024/04/16 07:05:10;;;;;;;7.93;4.22;;;;;;;19.02;74.02;99751.94;5447194;26;20428;-72
2024/04/16 07:07:36;;;;;;;6.40;3.90;;;;;;;18.90;74.34;99724.09;5447343;26;19994;-70
2024/04/16 07:10:02;;;;;;;5.22;3.33;;;;;;;18.87;74.63;99704.06;5448533;26;19995;-69
2024/04/16 07:12:28;;;;;;;5.82;3.70;;;;;;;19.12;75.85;99731.78;5448067;26;20045;-69
2024/04/16 07:14:53;;;;;;;7.13;3.70;;;;;;;19.29;75.63;99740.31;5388418;26;20011;-69
2024/04/16 07:17:19;;;;;;;5.18;4.05;;;;;;;19.47;75.55;99726.16;5447918;26;19999;-70
2024/04/16 07:19:45;;;;;;;8.40;4.30;;;;;;;19.59;74.48;99719.03;5388021;26;19995;-69
2024/04/16 07:22:11;;;;;;;7.30;4.05;;;;;;;19.53;72.87;99693.81;5447053;26;20430;-69
2024/04/16 07:24:38;;;;;;;8.18;4.07;;;;;;;19.71;72.77;99698.81;5447636;26;20075;-71
2024/04/16 07:27:03;;;;;;;11.13;4.10;;;;;;;20.08;71.11;99726.28;5448030;26;19999;-74
2024/04/16 07:29:29;;;;;;;6.50;3.67;;;;;;;20.30;69.98;99728.56;5447529;26;20579;-70
2024/04/16 07:31:54;;;;;;;6.78;3.63;;;;;;;20.45;69.42;99727.47;5446974;26;20021;-72
2024/04/16 07:34:22;;;;;;;6.85;3.53;;;;;;;20.66;69.04;99715.78;5421454;26;20435;-70
2024/04/16 07:36:48;;;;;;;4.90;3.63;;;;;;;20.82;64.01;99705.94;5486251;26;20009;-69
2024/04/16 07:39:14;;;;;;;5.18;3.20;;;;;;;20.86;64.88;99694.50;5486835;26;20360;-69
2024/04/16 07:41:40;;;;;;;4.95;2.95;;;;;;;20.63;63.40;99642.41;5453566;26;20013;-70
2024/04/16 07:44:05;;;;;;;6.38;3.60;;;;;;;21.20;63.97;99701.75;5454019;26;20449;-74
2024/04/16 07:46:51;;;;;;;6.25;3.28;;;;;;;21.25;64.50;99704.28;5483417;26;19998;-72
2024/04/16 07:49:16;;;;;;;4.07;2.70;;;;;;;21.30;62.71;99681.44;5452568;26;20009;-69
2024/04/16 07:51:45;;;;;;;7.40;3.40;;;;;;;21.49;61.20;99692.41;5483987;26;20006;-70
2024/04/16 07:54:10;;;;;;;9.70;3.58;;;;;;;21.53;61.59;99673.06;5483131;26;20032;-74
2024/04/16 07:56:36;;;;;;;7.13;3.38;;;;;;;21.73;61.37;99691.09;5483677;26;20018;-70
2024/04/16 07:59:03;;;;;;;5.97;3.17;;;;;;;21.45;62.51;99660.09;5483480;26;20486;-75
2024/04/16 08:01:28;;;;;;;5.05;3.20;;;;;;;21.74;62.21;99687.53;5483018;26;20025;-73
2024/04/16 08:03:54;;;;;;;5.82;3.40;;;;;;;21.87;62.81;99682.00;5482181;26;20005;-73
2024/04/16 08:06:19;;;;;;;7.97;3.35;;;;;;;21.96;61.79;99687.09;5483610;26;19998;-72
2024/04/16 08:08:45;;;;;;;9.07;3.30;;;;;;;22.08;61.45;99685.91;5483282;26;20002;-69
2024/04/16 08:11:12;;;;;;;5.95;3.10;;;;;;;22.30;60.68;99692.41;5483771;26;20009;-70
2024/04/16 08:13:39;;;;;;;5.47;3.17;;;;;;;22.49;60.33;99691.13;5482430;26;19998;-70
2024/04/16 08:16:08;;;;;;;8.23;3.63;;;;;;;22.50;59.39;99658.69;5483195;26;20074;-69
2024/04/16 08:18:34;;;;;;;4.65;3.17;;;;;;;22.82;59.22;99697.31;5487219;26;20009;-72
2024/04/16 08:20:59;;;;;;;7.97;3.95;;;;;;;22.89;59.31;99692.75;5489942;26;20009;-69
2024/04/16 08:23:25;;;;;;;4.78;3.40;;;;;;;23.08;58.67;99679.97;5489176;26;20316;-70
2024/04/16 08:26:17;;;;;;;7.38;3.60;;;;;;;23.35;57.70;99686.28;5490293;26;20433;-70
2024/04/16 08:28:42;;;;;;;6.47;3.60;;;;;;;23.43;59.05;99672.88;5449732;26;20159;-70
2024/04/16 08:31:08;;;;;;;6.45;3.55;;;;;;;23.67;56.46;99673.91;5450491;26;20079;-73
2024/04/16 08:33:33;;;;;;;7.03;3.72;;;;;;;23.93;55.86;99689.88;5449216;26;19999;-70
2024/04/16 08:35:59;;;;;;;8.65;3.63;;;;;;;23.99;54.72;99684.41;5450295;26;20064;-75
2024/04/16 08:38:25;;;;;;;5.45;3.20;;;;;;;24.14;55.16;99683.94;5450213;26;20044;-69
2024/04/16 08:40:50;;;;;;;8.90;3.40;;;;;;;24.35;53.43;99687.66;5450424;26;20052;-71
2024/04/16 08:43:16;;;;;;;9.52;3.60;;;;;;;24.29;51.67;99653.56;5450154;26;20011;-72
2024/04/16 08:45:43;;;;;;;5.88;3.92;;;;;;;24.73;53.98;99670.63;5450057;26;20026;-74
2024/04/16 08:48:11;;;;;;;6.38;3.35;;;;;;;24.73;52.66;99652.16;5450519;26;20006;-70
2024/04/16 08:50:36;;;;;;;6.60;3.85;;;;;;;24.80;50.88;99645.72;5450771;26;20319;-71
2024/04/16 08:53:03;;;;;;;7.63;3.70;;;;;;;25.07;51.51;99666.78;5450640;26;20006;-70
2024/04/16 08:55:32;;;;;;;6.30;3.40;;;;;;;25.00;51.01;99664.38;5450626;26;20023;-70
2024/04/16 08:57:58;;;;;;;7.57;3.53;;;;;;;25.06;52.22;99650.09;5420825;26;20682;-72
2024/04/16 09:00:23;;;;;;;6.38;3.78;;;;;;;25.06;51.41;99636.91;5417115;26;20015;-73
2024/04/16 09:02:51;;;;;;;8.55;3.30;;;;;;;25.29;50.99;99657.16;5407471;26;20036;-72
2024/04/16 09:05:17;;;;;;;6.15;3.42;;;;;;;25.47;50.58;99649.50;5420927;26;20010;-72
2024/04/16 09:07:42;;;;;;;5.18;3.13;;;;;;;25.47;49.04;99623.94;5452730;26;20017;-76
2024/04/16 09:10:12;;;;;;;5.72;2.90;;;;;;;25.49;51.01;99637.09;5452824;26;19995;-73
2024/04/16 09:12:39;;;;;;;9.63;3.50;;;;;;;25.57;50.95;99635.03;5437220;26;20002;-75
2024/04/16 09:15:05;;;;;;;8.02;3.65;;;;;;;25.58;50.63;99623.50;5452703;26;20034;-71
2024/04/16 09:17:31;;;;;;;5.03;3.20;;;;;;;25.49;49.32;99597.44;5447968;26;19999;-71
2024/04/16 09:20:00;;;;;;;6.90;3.10;;;;;;;25.70;48.86;99616.91;5420331;26;19999;-72
2024/04/16 09:22:26;;;;;;;9.30;3.50;;;;;;;25.66;48.30;99621.44;5419360;26;20031;-76
2024/04/16 09:24:51;;;;;;;5.90;3.28;;;;;;;25.75;48.09;99624.66;5418303;26;20080;-73
2024/04/16 09:27:17;;;;;;;5.35;3.10;;;;;;;25.77;48.95;99628.97;5418983;26;19999;-73
2024/04/16 09:29:44;;;;;;;5.32;3.03;;;;;;;25.78;48.50;99632.44;5435003;26;20072;-74
2024/04/16 09:32:10;;;;;;;5.97;2.95;;;;;;;25.63;49.20;99589.84;5452278;26;20340;-69
2024/04/16 09:34:42;;;;;;;7.45;3.58;;;;;;;25.77;47.92;99594.59;5452548;26;20002;-69
2024/04/16 09:37:07;;;;;;;5.75;3.30;;;;;;;25.97;47.76;99620.22;5419563;26;19995;-72
2024/04/16 09:39:33;;;;;;;6.55;3.28;;;;;;;25.90;49.28;99599.38;5452401;26;19991;-70
2024/04/16 09:41:59;;;;;;;5.60;2.92;;;;;;;25.97;48.64;99619.34;5452307;26;20070;-71
2024/04/16 09:44:26;;;;;;;12.07;3.40;;;;;;;26.17;48.34;99613.28;5452498;26;19998;-72
2024/04/16 09:46:55;;;;;;;7.38;3.10;;;;;;;26.24;46.96;99568.91;5452249;26;20013;-69
2024/04/16 09:49:21;;;;;;;4.10;2.90;;;;;;;26.59;47.55;99596.50;5443532;26;20003;-70
2024/04/16 09:51:48;;;;;;;6.20;3.63;;;;;;;26.84;45.68;99590.16;5447911;26;20079;-71
2024/04/16 09:54:15;;;;;;;5.18;2.90;;;;;;;26.99;46.30;99585.09;5451725;26;20031;-72
2024/04/16 09:56:43;;;;;;;4.70;3.05;;;;;;;27.13;43.53;99572.94;5452158;26;20505;-71
2024/04/16 09:59:12;;;;;;;7.22;3.28;;;;;;;27.13;44.67;99558.84;5452218;26;20010;-72
2024/04/16 10:01:40;;;;;;;4.00;2.58;;;;;;;26.99;44.56;99545.38;5452365;26;20472;-70
2024/04/16 10:04:08;;;;;;;7.50;3.25;;;;;;;26.85;43.38;99557.44;5452139;26;20034;-71
2024/04/16 10:06:35;;;;;;;8.43;3.28;;;;;;;26.96;43.44;99556.97;5451768;26;20013;-72
2024/04/16 10:09:01;;;;;;;6.63;2.97;;;;;;;26.95;42.57;99545.53;5451636;26;20006;-72
2024/04/16 10:11:28;;;;;;;7.38;3.50;;;;;;;27.01;43.93;99543.53;5429800;26;19995;-69
2024/04/16 10:13:54;;;;;;;5.88;3.40;;;;;;;27.02;43.71;99526.69;5451805;26;20525;-70
2024/04/16 10:16:20;;;;;;;5.35;3.15;;;;;;;27.02;44.49;99532.00;5452246;26;20002;-72
2024/04/16 10:18:56;;;;;;;5.45;3.15;;;;;;;27.10;41.82;99538.66;5451865;26;20086;-70
2024/04/16 10:21:25;;;;;;;8.38;3.33;;;;;;;27.27;42.19;99529.91;5434014;26;20034;-73
2024/04/16 10:24:02;;;;;;;7.65;3.55;;;;;;;27.46;42.47;99505.19;5449728;26;20038;-72
2024/04/16 10:26:29;;;;;;;5.40;3.08;;;;;;;27.51;41.79;99516.44;5452071;26;20079;-73
2024/04/16 10:28:59;;;;;;;4.63;2.80;;;;;;;27.46;42.23;99494.59;5451258;26;19999;-71
2024/04/16 10:31:37;;;;;;;5.63;3.17;;;;;;;27.40;40.38;99487.81;5451248;26;19999;-70
2024/04/16 10:34:03;;;;;;;9.60;3.55;;;;;;;27.36;42.75;99469.44;5439851;26;20327;-73
2024/04/16 10:36:30;;;;;;;7.80;3.40;;;;;;;27.23;39.98;99451.50;5451517;26;20018;-72
2024/04/16 10:38:56;;;;;;;9.80;3.30;;;;;;;27.54;39.29;99483.59;5445235;26;19995;-73
2024/04/16 10:41:28;;;;;;;6.97;3.20;;;;;;;27.59;41.16;99482.47;5433634;26;19994;-74
2024/04/16 10:43:55;;;;;;;7.32;3.35;;;;;;;27.73;39.48;99495.03;5451306;26;20013;-71
2024/04/16 10:46:23;;;;;;;9.02;3.53;;;;;;;27.98;39.68;99495.59;5451292;26;20002;-72
2024/04/16 10:48:49;;;;;;;8.57;3.30;;;;;;;28.13;37.55;99478.06;5451297;26;20009;-70
2024/04/16 10:51:15;;;;;;;6.80;3.30;;;;;;;28.11;37.77;99456.03;5451217;26;20023;-72
2024/04/16 10:53:42;;;;;;;10.00;3.53;;;;;;;28.31;38.03;99487.69;5451080;26;20003;-73
2024/04/16 10:56:09;;;;;;;6.18;3.40;;;;;;;28.41;35.09;99467.69;5442871;26;19999;-70
2024/04/16 10:58:34;;;;;;;7.20;3.17;;;;;;;28.49;34.15;99458.47;5441383;26;20010;-71
2024/04/16 11:01:01;;;;;;;10.63;3.47;;;;;;;28.43;36.39;99454.34;5451016;26;20003;-72
2024/04/16 11:03:27;;;;;;;7.90;3.35;;;;;;;28.39;36.49;99463.41;5451159;26;19999;-70
2024/04/16 11:05:56;;;;;;;6.30;3.70;;;;;;;28.16;35.85;99427.47;5451257;26;20456;-69
2024/04/16 11:08:22;;;;;;;9.63;3.37;;;;;;;28.36;37.54;99455.59;5451321;26;20002;-71
2024/04/16 11:10:49;;;;;;;8.55;3.13;;;;;;;28.42;38.03;99460.56;5418426;26;20469;-73
2024/04/16 11:13:21;;;;;;;8.70;3.38;;;;;;;28.34;37.19;99461.00;5451073;26;19994;-73
2024/04/16 11:15:47;;;;;;;6.85;3.03;;;;;;;28.54;37.61;99446.66;5451266;26;20017;-70
2024/04/16 11:18:12;;;;;;;9.27;3.15;;;;;;;28.69;35.79;99431.72;5451292;26;20339;-70
2024/04/16 11:20:39;;;;;;;12.65;3.70;;;;;;;28.79;36.33;99434.72;5449745;26;20329;-73
2024/04/16 11:23:05;;;;;;;9.50;3.67;;;;;;;28.89;36.28;99438.56;5448104;26;20326;-71
2024/04/16 11:25:32;;;;;;;10.68;3.58;;;;;;;28.89;36.29;99435.91;5448325;26;20057;-70
2024/04/16 11:27:58;;;;;;;5.90;3.10;;;;;;;28.62;36.95;99398.41;5450662;26;19999;-71
2024/04/16 11:30:24;;;;;;;9.23;3.13;;;;;;;28.16;37.87;99372.59;5448866;26;20035;-71